createdAt,value
2017-11-26T00:02:23.901Z,15.90
2017-11-26T00:04:51.536Z,22.98
2017-11-26T00:07:19.187Z,16.27
2017-11-26T00:09:46.811Z,17.48
2017-11-26T00:12:14.535Z,17.98
2017-11-26T00:14:42.164Z,16.27
2017-11-26T00:17:09.790Z,14.87
2017-11-26T00:19:38.213Z,22.48
2017-11-26T00:22:05.842Z,15.00
2017-11-26T00:24:33.503Z,15.68
2017-11-26T00:27:01.126Z,17.15
2017-11-26T00:29:28.763Z,15.88
2017-11-26T00:31:56.418Z,14.30
2017-11-26T00:34:24.077Z,13.23
2017-11-26T00:36:51.746Z,20.37
2017-11-26T00:39:19.371Z,11.90
2017-11-26T00:41:46.991Z,14.23
2017-11-26T00:44:14.647Z,16.77
2017-11-26T00:46:42.289Z,17.40
2017-11-26T00:49:09.960Z,15.05
2017-11-26T00:51:37.586Z,15.23
2017-11-26T00:54:05.211Z,15.40
2017-11-26T00:56:33.626Z,15.68
2017-11-26T00:59:01.264Z,13.82
2017-11-26T01:01:28.924Z,14.45
2017-11-26T01:03:56.553Z,15.57
2017-11-26T01:06:24.177Z,16.58
2017-11-26T01:08:51.840Z,17.67
2017-11-26T01:11:19.476Z,18.70
2017-11-26T01:13:47.138Z,14.63
2017-11-26T01:16:14.770Z,24.87
2017-11-26T01:18:42.391Z,16.40
2017-11-26T01:21:10.815Z,15.90
2017-11-26T01:23:38.436Z,15.90
2017-11-26T01:26:06.092Z,17.60
2017-11-26T01:28:33.720Z,16.35
2017-11-26T01:31:01.352Z,18.05
2017-11-26T01:33:29.771Z,24.10
2017-11-26T01:35:57.394Z,18.73
2017-11-26T01:38:25.042Z,25.48
2017-11-26T01:40:52.664Z,27.55
2017-11-26T01:43:20.284Z,27.73
2017-11-26T01:45:47.928Z,27.67
2017-11-26T01:48:15.580Z,29.63
2017-11-26T01:50:43.237Z,28.70
2017-11-26T01:53:11.624Z,33.30
2017-11-26T01:55:39.255Z,31.25
2017-11-26T01:58:06.911Z,22.48
2017-11-26T02:00:34.540Z,23.62
2017-11-26T02:03:02.968Z,24.20
2017-11-26T02:05:30.594Z,28.42
2017-11-26T02:07:58.255Z,24.10
2017-11-26T02:10:25.917Z,23.92
2017-11-26T02:12:53.539Z,20.40
2017-11-26T02:15:21.244Z,21.65
2017-11-26T02:17:49.652Z,21.87
2017-11-26T02:20:17.271Z,23.12
2017-11-26T02:22:44.927Z,21.62
2017-11-26T02:25:12.560Z,24.55
2017-11-26T02:27:40.220Z,22.85
2017-11-26T02:30:07.862Z,19.75
2017-11-26T02:32:47.450Z,27.45
2017-11-26T02:35:27.757Z,21.75
2017-11-26T02:37:55.415Z,25.95
2017-11-26T02:40:23.052Z,22.85
2017-11-26T02:42:50.670Z,23.45
2017-11-26T02:45:18.336Z,20.92
2017-11-26T02:47:46.021Z,21.17
2017-11-26T02:50:13.686Z,24.70
2017-11-26T02:52:42.079Z,23.77
2017-11-26T02:55:09.715Z,22.52
2017-11-26T02:57:37.390Z,21.58
2017-11-26T03:00:05.020Z,22.80
2017-11-26T03:02:32.672Z,25.15
2017-11-26T03:05:00.300Z,24.08
2017-11-26T03:07:27.928Z,32.85
2017-11-26T03:09:56.344Z,24.75
2017-11-26T03:12:23.962Z,25.70
2017-11-26T03:14:51.607Z,25.73
2017-11-26T03:17:19.240Z,27.15
2017-11-26T03:19:46.876Z,28.15
2017-11-26T03:22:15.304Z,26.75
2017-11-26T03:24:42.916Z,25.65
2017-11-26T03:27:10.567Z,29.50
2017-11-26T03:29:38.189Z,30.40
2017-11-26T03:32:05.826Z,25.48
2017-11-26T03:34:34.234Z,21.48
2017-11-26T03:37:01.953Z,24.15
2017-11-26T03:39:29.631Z,21.55
2017-11-26T03:41:57.259Z,18.70
2017-11-26T03:44:24.883Z,23.90
2017-11-26T03:46:52.551Z,27.40
2017-11-26T03:49:20.170Z,18.90
2017-11-26T03:51:48.592Z,19.17
2017-11-26T03:54:16.218Z,20.33
2017-11-26T03:56:43.853Z,19.37
2017-11-26T03:59:11.499Z,22.95
2017-11-26T04:01:39.130Z,17.60
2017-11-26T04:04:06.791Z,21.08
2017-11-26T04:06:34.416Z,19.12
2017-11-26T04:09:02.812Z,23.05
2017-11-26T04:11:30.463Z,18.90
2017-11-26T04:13:58.095Z,20.33
2017-11-26T04:16:25.749Z,17.17
2017-11-26T04:18:53.377Z,17.02
2017-11-26T04:21:20.996Z,17.67
2017-11-26T04:23:48.647Z,18.55
2017-11-26T04:26:17.056Z,17.58
2017-11-26T04:28:44.717Z,17.37
2017-11-26T04:31:12.362Z,18.00
2017-11-26T04:33:39.983Z,18.10
2017-11-26T04:36:07.635Z,19.15
2017-11-26T04:38:35.255Z,18.52
2017-11-26T04:41:03.916Z,21.50
2017-11-26T04:43:32.312Z,15.75
2017-11-26T04:45:59.938Z,16.73
2017-11-26T04:48:27.595Z,20.00
2017-11-26T04:50:55.236Z,18.62
2017-11-26T04:53:23.162Z,18.65
2017-11-26T04:55:50.779Z,17.92
2017-11-26T04:58:18.403Z,16.83
2017-11-26T05:00:46.058Z,15.77
2017-11-26T05:03:13.685Z,18.65
2017-11-26T05:05:41.337Z,16.30
2017-11-26T05:08:08.973Z,16.25
2017-11-26T05:10:36.600Z,15.90
2017-11-26T05:13:05.036Z,16.75
2017-11-26T05:15:32.669Z,16.17
2017-11-26T05:18:00.330Z,14.73
2017-11-26T05:20:27.960Z,13.95
2017-11-26T05:22:55.576Z,15.63
2017-11-26T05:25:23.224Z,14.87
2017-11-26T05:27:50.855Z,17.20
2017-11-26T05:30:19.272Z,13.50
2017-11-26T05:32:46.901Z,18.62
2017-11-26T05:35:14.528Z,14.80
2017-11-26T05:37:42.191Z,14.95
2017-11-26T05:40:09.815Z,12.45
2017-11-26T05:42:37.467Z,12.85
2017-11-26T05:45:05.102Z,14.18
2017-11-26T05:47:32.736Z,15.57
2017-11-26T05:50:01.160Z,14.27
2017-11-26T05:52:28.775Z,12.00
2017-11-26T05:54:56.439Z,15.10
2017-11-26T05:57:24.055Z,11.80
2017-11-26T05:59:51.671Z,11.70
2017-11-26T06:02:19.346Z,10.63
2017-11-26T06:04:46.990Z,13.18
2017-11-26T06:07:14.647Z,13.98
2017-11-26T06:09:42.309Z,12.98
2017-11-26T06:12:09.933Z,12.60
2017-11-26T06:14:37.588Z,14.68
2017-11-26T06:17:05.219Z,13.88
2017-11-26T06:19:36.439Z,13.15
2017-11-26T06:22:04.055Z,13.60
2017-11-26T06:24:31.703Z,12.52
2017-11-26T06:26:59.364Z,11.65
2017-11-26T06:29:26.986Z,13.48
2017-11-26T06:31:54.872Z,11.43
2017-11-26T06:34:23.273Z,11.00
2017-11-26T06:36:50.888Z,11.57
2017-11-26T06:39:18.535Z,10.48
2017-11-26T06:41:46.909Z,11.07
2017-11-26T06:44:15.334Z,11.73
2017-11-26T06:46:47.198Z,15.30
2017-11-26T06:49:14.877Z,11.85
2017-11-26T06:51:42.535Z,11.77
2017-11-26T06:54:10.159Z,12.00
2017-11-26T06:56:37.816Z,12.57
2017-11-26T06:59:05.440Z,12.98
2017-11-26T07:01:33.159Z,13.02
2017-11-26T07:04:04.585Z,13.10
2017-11-26T07:06:32.244Z,15.02
2017-11-26T07:08:59.979Z,12.40
2017-11-26T07:11:27.838Z,12.25
2017-11-26T07:13:55.503Z,12.98
2017-11-26T07:16:23.139Z,12.68
2017-11-26T07:18:50.801Z,12.77
2017-11-26T07:21:18.421Z,11.93
2017-11-26T07:23:46.040Z,12.32
2017-11-26T07:26:14.249Z,12.35
2017-11-26T07:28:41.894Z,10.73
2017-11-26T07:31:10.323Z,11.45
2017-11-26T07:33:37.965Z,12.93
2017-11-26T07:36:05.592Z,11.98
2017-11-26T07:38:35.871Z,11.82
2017-11-26T07:41:04.263Z,10.32
2017-11-26T07:43:31.920Z,12.65
2017-11-26T07:45:59.565Z,15.18
2017-11-26T07:48:27.184Z,11.40
2017-11-26T07:50:55.627Z,11.52
2017-11-26T07:53:23.292Z,11.30
2017-11-26T07:55:51.719Z,11.27
2017-11-26T07:58:19.413Z,10.43
2017-11-26T08:00:47.031Z,10.93
2017-11-26T08:03:14.694Z,10.77
2017-11-26T08:05:42.313Z,10.43
2017-11-26T08:08:15.397Z,12.40
2017-11-26T08:10:43.015Z,9.00
2017-11-26T08:13:10.969Z,10.52
2017-11-26T08:15:38.632Z,11.77
2017-11-26T08:18:06.268Z,10.88
2017-11-26T08:20:33.925Z,9.68
2017-11-26T08:23:01.553Z,10.15
2017-11-26T08:25:29.177Z,9.90
2017-11-26T08:27:56.841Z,13.88
2017-11-26T08:30:24.473Z,10.05
2017-11-26T08:32:57.848Z,8.38
2017-11-26T08:35:25.464Z,9.10
2017-11-26T08:37:53.840Z,9.00
2017-11-26T08:40:23.047Z,11.05
2017-11-26T08:42:50.672Z,10.07
2017-11-26T08:45:18.610Z,9.40
2017-11-26T08:47:46.261Z,8.50
2017-11-26T08:50:14.006Z,9.35
2017-11-26T08:52:42.448Z,9.55
2017-11-26T08:55:10.195Z,9.30
2017-11-26T08:57:38.052Z,10.45
2017-11-26T09:00:05.715Z,9.90
2017-11-26T09:02:35.090Z,9.88
2017-11-26T09:05:02.762Z,9.18
2017-11-26T09:07:34.958Z,8.77
2017-11-26T09:10:02.617Z,9.07
2017-11-26T09:12:30.233Z,8.43
2017-11-26T09:14:57.840Z,7.60
2017-11-26T09:17:26.292Z,9.52
2017-11-26T09:19:53.925Z,7.75
2017-11-26T09:22:21.592Z,8.48
2017-11-26T09:24:49.251Z,7.90
2017-11-26T09:27:17.641Z,7.90
2017-11-26T09:29:45.296Z,7.57
2017-11-26T09:32:12.917Z,8.55
2017-11-26T09:34:41.334Z,6.40
2017-11-26T09:37:08.944Z,8.05
2017-11-26T09:39:36.596Z,6.85
2017-11-26T09:42:04.232Z,6.37
2017-11-26T09:44:31.863Z,6.50
2017-11-26T09:47:00.279Z,7.97
2017-11-26T09:49:27.913Z,6.82
2017-11-26T09:51:55.521Z,5.70
2017-11-26T09:54:23.938Z,5.80
2017-11-26T09:56:51.561Z,5.25
2017-11-26T09:59:19.219Z,5.10
2017-11-26T10:01:46.867Z,5.32
2017-11-26T10:04:14.488Z,6.07
2017-11-26T10:06:42.140Z,7.30
2017-11-26T10:09:09.775Z,6.22
2017-11-26T10:11:37.415Z,6.10
2017-11-26T10:14:05.799Z,6.10
2017-11-26T10:16:33.418Z,5.93
2017-11-26T10:19:01.838Z,7.35
2017-11-26T10:21:29.453Z,4.87
2017-11-26T10:23:57.096Z,5.20
2017-11-26T10:26:24.723Z,5.25
2017-11-26T10:28:52.643Z,5.20
2017-11-26T10:31:20.287Z,5.10
2017-11-26T10:33:47.903Z,5.47
2017-11-26T10:36:15.549Z,5.30
2017-11-26T10:38:43.160Z,5.30
2017-11-26T10:41:11.536Z,5.57
2017-11-26T10:43:39.179Z,5.45
2017-11-26T10:46:07.563Z,4.95
2017-11-26T10:48:35.225Z,4.65
2017-11-26T10:51:02.971Z,4.55
2017-11-26T10:53:30.636Z,5.62
2017-11-26T10:55:58.305Z,4.35
2017-11-26T10:58:25.923Z,4.95
2017-11-26T11:00:53.582Z,4.72
2017-11-26T11:03:21.208Z,5.70
2017-11-26T11:05:48.831Z,5.30
2017-11-26T11:08:16.488Z,4.65
2017-11-26T11:10:44.103Z,5.15
2017-11-26T11:13:12.520Z,4.70
2017-11-26T11:15:40.141Z,6.47
2017-11-26T11:18:07.800Z,4.87
2017-11-26T11:20:35.472Z,4.18
2017-11-26T11:23:03.088Z,4.70
2017-11-26T11:25:30.758Z,4.43
2017-11-26T11:27:58.379Z,5.22
2017-11-26T11:30:25.995Z,5.15
2017-11-26T11:32:54.534Z,4.15
2017-11-26T11:35:22.153Z,5.20
2017-11-26T11:37:49.831Z,5.35
2017-11-26T11:40:17.444Z,4.10
2017-11-26T11:42:45.990Z,4.43
2017-11-26T11:45:13.638Z,4.85
2017-11-26T11:47:41.515Z,4.50
2017-11-26T11:50:09.155Z,5.47
2017-11-26T11:52:36.791Z,5.65
2017-11-26T11:55:04.424Z,6.35
2017-11-26T11:57:32.084Z,6.32
2017-11-26T11:59:59.696Z,6.55
2017-11-26T12:02:28.127Z,4.45
2017-11-26T12:04:55.754Z,4.93
2017-11-26T12:07:23.382Z,4.45
2017-11-26T12:09:51.303Z,3.90
2017-11-26T12:12:26.860Z,4.97
2017-11-26T12:15:02.549Z,4.12
2017-11-26T12:17:38.252Z,5.80
2017-11-26T12:20:06.179Z,4.15
2017-11-26T12:22:33.877Z,3.90
2017-11-26T12:25:01.494Z,5.95
2017-11-26T12:27:29.147Z,4.65
2017-11-26T12:29:58.968Z,3.35
2017-11-26T12:32:26.934Z,5.20
2017-11-26T12:34:54.551Z,4.05
2017-11-26T12:37:23.153Z,3.45
2017-11-26T12:39:50.820Z,4.07
2017-11-26T12:42:18.564Z,5.50
2017-11-26T12:44:46.994Z,3.97
2017-11-26T12:47:14.610Z,4.35
2017-11-26T12:49:42.232Z,3.95
2017-11-26T12:52:10.647Z,4.72
2017-11-26T12:54:38.260Z,3.72
2017-11-26T12:57:06.683Z,4.07
2017-11-26T12:59:34.292Z,4.65
2017-11-26T13:02:01.907Z,3.80
2017-11-26T13:04:29.554Z,3.00
2017-11-26T13:06:57.188Z,3.53
2017-11-26T13:09:25.593Z,4.07
2017-11-26T13:11:53.219Z,3.50
2017-11-26T13:14:20.853Z,3.10
2017-11-26T13:16:48.506Z,3.80
2017-11-26T13:19:17.339Z,4.40
2017-11-26T13:21:45.002Z,4.43
2017-11-26T13:24:13.660Z,4.35
2017-11-26T13:26:42.125Z,4.05
2017-11-26T13:29:09.773Z,5.35
2017-11-26T13:31:37.395Z,4.35
2017-11-26T13:34:11.272Z,5.30
2017-11-26T13:36:38.908Z,4.05
2017-11-26T13:39:06.531Z,4.10
2017-11-26T13:41:34.188Z,3.95
2017-11-26T13:44:01.868Z,4.43
2017-11-26T13:46:35.554Z,4.30
2017-11-26T13:49:03.176Z,3.58
2017-11-26T13:51:30.790Z,6.10
2017-11-26T13:53:59.192Z,3.75
2017-11-26T13:56:26.817Z,5.35
2017-11-26T13:58:59.382Z,4.82
2017-11-26T14:01:28.121Z,3.95
2017-11-26T14:03:56.440Z,4.60
2017-11-26T14:06:30.500Z,5.85
2017-11-26T14:08:58.965Z,4.90
2017-11-26T14:11:31.707Z,4.22
2017-11-26T14:14:00.157Z,5.45
2017-11-26T14:16:27.775Z,5.15
2017-11-26T14:18:55.421Z,5.78
2017-11-26T14:21:23.050Z,4.60
2017-11-26T14:23:53.136Z,4.18
2017-11-26T14:26:23.373Z,6.40
2017-11-26T14:28:51.020Z,5.10
2017-11-26T14:31:18.637Z,6.53
2017-11-26T14:33:47.087Z,4.60
2017-11-26T14:36:17.776Z,6.28
2017-11-26T14:38:47.495Z,5.72
2017-11-26T14:41:15.142Z,3.62
2017-11-26T14:43:42.759Z,3.83
2017-11-26T14:46:10.413Z,4.70
2017-11-26T14:48:38.806Z,4.25
2017-11-26T14:51:10.811Z,5.07
2017-11-26T14:53:38.554Z,3.92
2017-11-26T14:56:06.218Z,4.70
2017-11-26T14:58:38.663Z,6.20
2017-11-26T15:01:06.313Z,5.32
2017-11-26T15:03:33.933Z,8.05
2017-11-26T15:06:01.584Z,5.25
2017-11-26T15:08:29.231Z,5.20
2017-11-26T15:10:56.898Z,6.60
2017-11-26T15:13:24.503Z,4.70
2017-11-26T15:15:52.120Z,5.75
2017-11-26T15:18:19.778Z,7.45
2017-11-26T15:21:00.779Z,6.45
2017-11-26T15:23:28.425Z,5.47
2017-11-26T15:25:56.046Z,4.30
2017-11-26T15:28:24.421Z,5.35
2017-11-26T15:30:52.136Z,3.95
2017-11-26T15:33:20.562Z,5.60
2017-11-26T15:35:48.228Z,6.43
2017-11-26T15:38:16.010Z,4.45
2017-11-26T15:40:43.654Z,5.07
2017-11-26T15:43:11.333Z,6.55
2017-11-26T15:45:39.004Z,7.18
2017-11-26T15:48:06.687Z,6.37
2017-11-26T15:50:34.312Z,8.45
2017-11-26T15:53:01.951Z,5.72
2017-11-26T15:55:29.608Z,4.68
2017-11-26T15:57:57.293Z,7.32
2017-11-26T16:00:25.703Z,5.30
2017-11-26T16:02:53.336Z,4.57
2017-11-26T16:05:20.963Z,6.70
2017-11-26T16:07:48.658Z,5.80
2017-11-26T16:10:16.296Z,6.95
2017-11-26T16:12:43.979Z,8.02
2017-11-26T16:15:11.587Z,6.82
2017-11-26T16:17:39.215Z,6.05
2017-11-26T16:20:06.944Z,4.80
2017-11-26T16:22:35.348Z,6.80
2017-11-26T16:25:03.000Z,5.22
2017-11-26T16:27:30.622Z,4.93
2017-11-26T16:29:58.243Z,7.50
2017-11-26T16:32:26.660Z,5.53
2017-11-26T16:34:54.275Z,5.30
2017-11-26T16:37:21.959Z,7.47
2017-11-26T16:39:49.891Z,5.05
2017-11-26T16:42:17.515Z,5.18
2017-11-26T16:44:45.232Z,4.68
2017-11-26T16:47:12.861Z,5.53
2017-11-26T16:49:40.519Z,6.20
2017-11-26T16:52:08.135Z,6.82
2017-11-26T16:54:35.769Z,5.47
2017-11-26T16:57:03.428Z,3.58
2017-11-26T16:59:31.092Z,5.85
2017-11-26T17:01:58.735Z,5.87
2017-11-26T17:04:26.387Z,7.78
2017-11-26T17:06:54.895Z,5.53
2017-11-26T17:09:26.868Z,5.03
2017-11-26T17:11:54.596Z,8.77
2017-11-26T17:14:22.315Z,6.00
2017-11-26T17:16:51.816Z,8.48
2017-11-26T17:19:20.197Z,7.22
2017-11-26T17:21:49.776Z,6.00
2017-11-26T17:24:18.289Z,5.22
2017-11-26T17:26:48.295Z,7.47
2017-11-26T17:29:16.479Z,9.82
2017-11-26T17:31:44.736Z,6.30
2017-11-26T17:34:12.381Z,7.60
2017-11-26T17:36:41.215Z,7.03
2017-11-26T17:39:08.884Z,8.05
2017-11-26T17:41:36.711Z,4.70
2017-11-26T17:44:04.730Z,6.65
2017-11-26T17:46:32.665Z,4.72
2017-11-26T17:49:00.292Z,5.60
2017-11-26T17:51:28.175Z,4.65
2017-11-26T17:53:55.831Z,5.97
2017-11-26T17:56:23.441Z,8.20
2017-11-26T17:58:51.148Z,3.85
2017-11-26T18:01:18.872Z,3.40
2017-11-26T18:03:46.655Z,4.70
2017-11-26T18:06:14.290Z,3.90
2017-11-26T18:08:41.900Z,3.90
2017-11-26T18:11:09.634Z,3.20
2017-11-26T18:13:38.015Z,3.08
2017-11-26T18:16:05.679Z,5.45
2017-11-26T18:18:33.631Z,6.20
2017-11-26T18:21:01.268Z,5.70
2017-11-26T18:23:29.495Z,5.15
2017-11-26T18:25:57.111Z,3.97
2017-11-26T18:28:24.864Z,4.15
2017-11-26T18:30:52.528Z,5.47
2017-11-26T18:33:20.920Z,3.20
2017-11-26T18:35:49.524Z,3.65
2017-11-26T18:38:17.156Z,3.67
2017-11-26T18:40:44.823Z,4.65
2017-11-26T18:43:14.316Z,4.53
2017-11-26T18:45:41.994Z,4.45
2017-11-26T18:48:10.428Z,5.62
2017-11-26T18:50:38.044Z,3.97
2017-11-26T18:53:05.744Z,9.23
2017-11-26T18:55:37.540Z,5.00
2017-11-26T18:58:05.199Z,4.70
2017-11-26T19:00:32.842Z,5.07
2017-11-26T19:03:00.457Z,4.43
2017-11-26T19:05:28.886Z,4.18
2017-11-26T19:07:56.498Z,5.57
2017-11-26T19:10:24.174Z,4.00
2017-11-26T19:12:51.799Z,3.33
2017-11-26T19:15:19.436Z,3.80
2017-11-26T19:17:47.102Z,4.12
2017-11-26T19:20:14.732Z,5.55
2017-11-26T19:22:42.420Z,5.62
2017-11-26T19:25:11.255Z,3.90
2017-11-26T19:27:39.686Z,6.53
2017-11-26T19:30:07.383Z,4.00
2017-11-26T19:32:35.010Z,5.47
2017-11-26T19:35:02.662Z,4.28
2017-11-26T19:37:30.290Z,3.80
2017-11-26T19:39:57.917Z,4.00
2017-11-26T19:42:26.375Z,3.87
2017-11-26T19:44:54.001Z,6.43
2017-11-26T19:47:21.915Z,4.32
2017-11-26T19:49:50.265Z,4.20
2017-11-26T19:52:18.258Z,5.07
2017-11-26T19:54:45.903Z,3.95
2017-11-26T19:57:14.449Z,3.97
2017-11-26T19:59:42.519Z,6.10
2017-11-26T20:02:10.187Z,3.78
2017-11-26T20:04:38.225Z,3.03
2017-11-26T20:07:06.251Z,3.75
2017-11-26T20:09:34.112Z,4.37
2017-11-26T20:12:02.875Z,3.42
2017-11-26T20:14:30.503Z,4.50
2017-11-26T20:16:58.899Z,2.97
2017-11-26T20:19:26.551Z,3.62
2017-11-26T20:21:55.179Z,3.37
2017-11-26T20:24:23.012Z,4.25
2017-11-26T20:26:50.634Z,4.15
2017-11-26T20:29:18.316Z,3.45
2017-11-26T20:31:45.977Z,5.20
2017-11-26T20:34:15.464Z,6.37
2017-11-26T20:36:43.127Z,3.20
2017-11-26T20:39:10.736Z,4.05
2017-11-26T20:41:38.348Z,4.00
2017-11-26T20:44:06.074Z,4.65
2017-11-26T20:46:33.712Z,3.05
2017-11-26T20:49:01.377Z,4.70
2017-11-26T20:51:29.008Z,3.12
2017-11-26T20:53:56.615Z,3.85
2017-11-26T20:56:24.274Z,3.50
2017-11-26T20:58:52.660Z,2.90
2017-11-26T21:01:20.316Z,3.55
2017-11-26T21:03:47.937Z,3.58
2017-11-26T21:06:16.320Z,3.37
2017-11-26T21:08:43.976Z,2.75
2017-11-26T21:11:11.597Z,3.10
2017-11-26T21:13:39.291Z,3.10
2017-11-26T21:16:06.936Z,3.78
2017-11-26T21:18:34.551Z,4.22
2017-11-26T21:21:02.191Z,2.85
2017-11-26T21:23:29.808Z,3.90
2017-11-26T21:25:58.355Z,4.50
2017-11-26T21:28:25.983Z,3.20
2017-11-26T21:30:54.240Z,4.47
2017-11-26T21:33:21.891Z,3.22
2017-11-26T21:35:49.512Z,3.65
2017-11-26T21:38:17.188Z,5.47
2017-11-26T21:40:44.846Z,3.30
2017-11-26T21:43:12.463Z,3.87
2017-11-26T21:45:40.112Z,3.87
2017-11-26T21:48:07.728Z,4.85
2017-11-26T21:50:35.380Z,3.50
2017-11-26T21:53:03.013Z,3.70
2017-11-26T21:55:30.644Z,4.68
2017-11-26T21:57:58.326Z,3.50
2017-11-26T22:00:26.003Z,3.15
2017-11-26T22:02:53.661Z,4.18
2017-11-26T22:05:21.698Z,4.32
2017-11-26T22:07:49.331Z,3.80
2017-11-26T22:10:17.010Z,4.18
2017-11-26T22:12:45.636Z,3.35
2017-11-26T22:15:13.286Z,3.97
2017-11-26T22:17:40.928Z,3.80
2017-11-26T22:20:12.589Z,3.85
2017-11-26T22:22:40.254Z,3.20
2017-11-26T22:25:07.880Z,3.65
2017-11-26T22:27:35.530Z,6.15
2017-11-26T22:30:03.743Z,7.18
2017-11-26T22:32:32.178Z,3.67
2017-11-26T22:34:59.824Z,3.70
2017-11-26T22:37:27.448Z,4.22
2017-11-26T22:39:55.100Z,3.90
2017-11-26T22:42:23.309Z,3.25
2017-11-26T22:44:51.741Z,6.80
2017-11-26T22:47:19.376Z,5.30
2017-11-26T22:49:46.992Z,4.18
2017-11-26T22:52:14.639Z,3.60
2017-11-26T22:54:42.268Z,4.35
2017-11-26T22:57:10.732Z,5.25
2017-11-26T22:59:39.123Z,3.47
2017-11-26T23:02:06.776Z,4.55
2017-11-26T23:04:47.020Z,3.60
2017-11-26T23:07:14.636Z,4.95
2017-11-26T23:09:43.068Z,3.97
2017-11-26T23:12:10.707Z,5.00
2017-11-26T23:14:38.346Z,4.18
2017-11-26T23:17:06.381Z,3.65
2017-11-26T23:19:34.024Z,5.00
2017-11-26T23:22:01.660Z,4.85
2017-11-26T23:24:29.310Z,4.80
2017-11-26T23:26:56.945Z,3.95
2017-11-26T23:29:24.612Z,3.35
2017-11-26T23:31:52.228Z,4.68
2017-11-26T23:34:20.613Z,3.40
2017-11-26T23:36:48.324Z,4.55
2017-11-26T23:39:16.715Z,5.40
2017-11-26T23:41:44.379Z,7.15
2017-11-26T23:44:12.002Z,4.75
2017-11-26T23:46:39.630Z,5.10
2017-11-26T23:49:08.071Z,4.30
2017-11-26T23:51:35.686Z,5.22
2017-11-26T23:54:03.586Z,3.53
2017-11-26T23:56:31.231Z,4.22
2017-11-26T23:58:58.874Z,4.85
